Impacts METAR Board INFO
IDs:

KMDW - Chicago/Midway Intl, IL, US

Updated at: 0726 UTC 11 Dec 2017
Potential Impact None Slight Moderate High
Time10/19Z 10/20Z 10/21Z 10/22Z 10/23Z 11/00Z 11/01Z 11/02Z 11/03Z 11/04Z 11/05Z 11/06Z 11/07Z
VIS10 10 10 10 10 10 10 10 10 10 10 10 10
CIG-- 33 30 37 130 160 29 29 28 28 27 26 --
CoverSCTBKNOVCBKNBKNBKNOVCOVCOVCBKNBKNBKNSCT
FltCatVFRVFRMVFRVFRVFRVFRMVFRMVFRMVFRMVFRMVFRMVFRVFR
WX--------------------------
WDir27032032032032032034034035035020330280
WSpd12 12 10 10 9 8 11 9 8 6 5 3 3
WGst-- -- -- -- -- -- -- -- -- -- -- -- --
Raw hourly METARs
KMDW 101853Z 27012KT 10SM SCT033 SCT250 01/M06 A2988 RMK AO2 SLP131 T00111061
KMDW 101953Z 32012KT 10SM BKN033 BKN250 02/M06 A2990 RMK AO2 SLP137 T00171061
KMDW 102053Z 32010KT 10SM BKN030 OVC250 01/M06 A2993 RMK AO2 SLP149 T00061056 53017
KMDW 102153Z 32010KT 10SM SCT030 BKN037 BKN150 01/M06 A2996 RMK AO2 SLP158 T00061061
KMDW 102253Z 32009KT 10SM FEW037 BKN130 BKN180 00/M07 A3000 RMK AO2 SLP171 T00001067
KMDW 102353Z 32008KT 10SM SCT037 BKN160 M01/M06 A3003 RMK AO2 SLP183 T10061061 10022 21006 53035
KMDW 110053Z 34011KT 10SM BKN029 OVC160 M01/M06 A3005 RMK AO2 SLP189 T10061061
KMDW 110153Z 34009KT 10SM OVC029 M01/M07 A3007 RMK AO2 SLP197 T10061067
KMDW 110253Z 35008KT 10SM OVC028 M01/M07 A3008 RMK AO2 SLP199 T10061067 51016
KMDW 110353Z 35006KT 10SM BKN028 M01/M07 A3008 RMK AO2 SLP199 T10111067
KMDW 110453Z 02005KT 10SM BKN027 M02/M07 A3008 RMK AO2 SLP200 T10171072
KMDW 110553Z 33003KT 10SM BKN026 M02/M07 A3008 RMK AO2 SLP197 T10171072 11006 21017 400221067 58000
KMDW 110653Z 28003KT 10SM SCT026 M03/M08 A3007 RMK AO2 SLP196 T10281078